createdAt,value
2023-01-20T00:00:40.503Z,11.33
2023-01-20T00:03:13.579Z,11.37
2023-01-20T00:05:51.164Z,11.90
2023-01-20T00:08:19.731Z,11.20
2023-01-20T00:10:50.082Z,12.17
2023-01-20T00:13:19.784Z,11.97
2023-01-20T00:15:49.133Z,13.50
2023-01-20T00:18:19.954Z,12.10
2023-01-20T00:20:50.755Z,12.47
2023-01-20T00:23:19.980Z,13.63
2023-01-20T00:25:51.190Z,12.53
2023-01-20T00:28:18.751Z,12.73
2023-01-20T00:30:48.138Z,12.57
2023-01-20T00:33:16.231Z,13.47
2023-01-20T00:35:46.193Z,14.53
2023-01-20T00:38:15.688Z,13.30
2023-01-20T00:40:43.780Z,13.20
2023-01-20T00:43:15.304Z,14.20
2023-01-20T00:45:45.043Z,13.30
2023-01-20T00:48:19.976Z,15.10
2023-01-20T00:50:51.426Z,15.40
2023-01-20T00:53:25.126Z,16.50
2023-01-20T00:55:55.902Z,14.60
2023-01-20T00:58:27.308Z,14.17
2023-01-20T01:00:58.307Z,13.23
2023-01-20T01:03:33.522Z,13.93
2023-01-20T01:06:13.520Z,14.03
2023-01-20T01:08:43.798Z,14.57
2023-01-20T01:11:16.396Z,15.07
2023-01-20T01:13:46.812Z,14.57
2023-01-20T01:16:17.914Z,14.40
2023-01-20T01:18:45.991Z,13.60
2023-01-20T01:21:23.505Z,13.50
2023-01-20T01:23:55.795Z,13.67
2023-01-20T01:26:25.630Z,14.33
2023-01-20T01:28:54.487Z,14.20
2023-01-20T01:31:22.466Z,15.50
2023-01-20T01:33:50.778Z,14.20
2023-01-20T01:36:20.035Z,14.60
2023-01-20T01:38:57.695Z,14.40
2023-01-20T01:41:28.940Z,13.10
2023-01-20T01:44:14.677Z,14.40
2023-01-20T01:46:47.188Z,13.13
2023-01-20T01:49:30.231Z,14.13
2023-01-20T01:52:17.536Z,13.77
2023-01-20T01:54:52.714Z,15.37
2023-01-20T01:57:20.664Z,15.37
2023-01-20T01:59:49.136Z,13.77
2023-01-20T02:02:21.175Z,16.23
2023-01-20T02:04:55.297Z,15.17
2023-01-20T02:07:23.801Z,15.37
2023-01-20T02:09:54.692Z,15.23
2023-01-20T02:12:23.092Z,14.33
2023-01-20T02:14:58.746Z,15.43
2023-01-20T02:17:35.607Z,16.03
2023-01-20T02:21:06.453Z,17.03
2023-01-20T02:24:02.171Z,14.37
2023-01-20T02:26:39.084Z,15.03
2023-01-20T02:29:27.595Z,15.10
2023-01-20T02:32:07.339Z,13.83
2023-01-20T02:35:24.916Z,16.43
2023-01-20T02:38:26.571Z,17.27
2023-01-20T02:41:48.592Z,15.57
2023-01-20T02:45:04.463Z,18.40
2023-01-20T02:47:56.564Z,16.67
2023-01-20T02:51:03.677Z,16.57
2023-01-20T02:53:44.452Z,16.60
2023-01-20T02:56:16.397Z,18.43
2023-01-20T02:59:11.131Z,15.77
2023-01-20T03:02:12.280Z,16.60
2023-01-20T03:04:50.330Z,19.27
2023-01-20T03:07:24.278Z,15.53
2023-01-20T03:09:56.036Z,16.97
2023-01-20T03:12:30.962Z,16.87
2023-01-20T03:15:01.807Z,15.33
2023-01-20T03:17:35.873Z,18.40
2023-01-20T03:20:13.185Z,17.10
2023-01-20T03:22:44.701Z,16.20
2023-01-20T03:25:16.907Z,15.87
2023-01-20T03:27:45.620Z,16.87
2023-01-20T03:30:17.409Z,17.33
2023-01-20T03:32:48.163Z,16.73
2023-01-20T03:35:17.445Z,18.33
2023-01-20T03:37:45.909Z,18.77
2023-01-20T03:40:19.937Z,17.70
2023-01-20T03:43:21.951Z,17.17
2023-01-20T03:46:04.319Z,17.43
2023-01-20T03:48:35.594Z,16.80
2023-01-20T03:51:15.920Z,16.67
2023-01-20T03:54:07.251Z,16.30
2023-01-20T03:57:06.913Z,16.67
2023-01-20T03:59:38.659Z,16.23
2023-01-20T04:02:08.529Z,17.60
2023-01-20T04:04:46.365Z,16.53
2023-01-20T04:07:20.326Z,17.23
2023-01-20T04:09:55.923Z,16.87
2023-01-20T04:12:26.982Z,17.10
2023-01-20T04:14:59.005Z,16.97
2023-01-20T04:17:31.459Z,15.60
2023-01-20T04:20:06.965Z,16.10
2023-01-20T04:22:44.370Z,17.57
2023-01-20T04:25:31.815Z,17.70
2023-01-20T04:28:02.226Z,16.83
2023-01-20T04:30:31.857Z,16.00
2023-01-20T04:33:00.956Z,16.60
2023-01-20T04:35:34.128Z,15.37
2023-01-20T04:38:05.803Z,17.00
2023-01-20T04:40:35.540Z,15.87
2023-01-20T04:43:07.084Z,17.60
2023-01-20T04:45:35.979Z,15.63
2023-01-20T04:48:09.923Z,16.77
2023-01-20T04:50:45.527Z,16.87
2023-01-20T04:53:17.931Z,17.20
2023-01-20T04:55:46.220Z,17.87
2023-01-20T04:58:13.707Z,18.43
2023-01-20T05:00:45.974Z,18.23
2023-01-20T05:03:13.055Z,18.07
2023-01-20T05:05:42.277Z,18.80
2023-01-20T05:08:11.965Z,18.97
2023-01-20T05:10:41.844Z,18.97
2023-01-20T05:13:12.743Z,19.20
2023-01-20T05:15:41.139Z,21.43
2023-01-20T05:18:09.196Z,20.67
2023-01-20T05:20:39.656Z,19.60
2023-01-20T05:23:07.720Z,19.83
2023-01-20T05:25:36.065Z,17.93
2023-01-20T05:28:06.505Z,17.77
2023-01-20T05:30:34.737Z,17.37
2023-01-20T05:33:09.969Z,17.17
2023-01-20T05:35:45.315Z,17.33
2023-01-20T05:38:13.371Z,17.60
2023-01-20T05:40:41.422Z,18.13
2023-01-20T05:43:13.055Z,18.00
2023-01-20T05:45:43.412Z,17.83
2023-01-20T05:48:12.839Z,18.57
2023-01-20T05:50:45.701Z,20.23
2023-01-20T05:53:18.299Z,16.77
2023-01-20T05:55:49.343Z,18.83
2023-01-20T05:58:16.327Z,19.63
2023-01-20T06:00:43.507Z,19.20
2023-01-20T06:03:11.442Z,19.87
2023-01-20T06:05:49.416Z,20.87
2023-01-20T06:08:18.675Z,21.20
2023-01-20T06:10:48.321Z,20.70
2023-01-20T06:13:18.218Z,20.27
2023-01-20T06:16:07.990Z,19.53
2023-01-20T06:18:38.863Z,21.27
2023-01-20T06:21:09.035Z,20.53
2023-01-20T06:23:39.572Z,20.43
2023-01-20T06:26:19.237Z,22.27
2023-01-20T06:28:46.455Z,20.47
2023-01-20T06:31:19.372Z,21.00
2023-01-20T06:33:49.115Z,19.13
2023-01-20T06:36:18.661Z,20.60
2023-01-20T06:38:52.990Z,19.40
2023-01-20T06:41:27.545Z,19.67
2023-01-20T06:43:56.820Z,23.67
2023-01-20T06:46:26.080Z,21.53
2023-01-20T06:51:41.823Z,19.47
2023-01-20T06:54:12.772Z,25.87
2023-01-20T06:56:43.455Z,27.70
2023-01-20T06:59:14.821Z,26.23
2023-01-20T07:01:43.189Z,29.63
2023-01-20T07:04:14.715Z,29.47
2023-01-20T07:06:44.667Z,24.07
2023-01-20T07:09:14.091Z,20.27
2023-01-20T07:11:45.768Z,19.43
2023-01-20T07:14:16.818Z,18.33
2023-01-20T07:16:44.117Z,19.67
2023-01-20T07:19:12.245Z,18.03
2023-01-20T07:21:42.746Z,18.67
2023-01-20T07:24:14.956Z,16.67
2023-01-20T07:26:45.854Z,17.73
2023-01-20T07:29:17.915Z,18.10
2023-01-20T07:31:49.967Z,16.13
2023-01-20T07:37:03.181Z,17.27
2023-01-20T07:39:36.194Z,17.87
2023-01-20T07:42:05.706Z,14.90
2023-01-20T07:44:34.970Z,16.03
2023-01-20T07:47:04.226Z,16.90
2023-01-20T07:49:34.597Z,14.83
2023-01-20T07:52:06.130Z,15.03
2023-01-20T07:54:37.323Z,15.20
2023-01-20T07:57:06.945Z,15.10
2023-01-20T07:59:34.594Z,14.07
2023-01-20T08:02:06.158Z,15.13
2023-01-20T08:04:38.800Z,15.83
2023-01-20T08:07:06.929Z,15.27
2023-01-20T08:09:36.776Z,12.83
2023-01-20T08:12:06.515Z,13.93
2023-01-20T08:14:37.951Z,13.67
2023-01-20T08:17:06.937Z,14.03
2023-01-20T08:19:34.730Z,13.33
2023-01-20T08:22:06.775Z,14.20
2023-01-20T08:24:39.169Z,17.03
2023-01-20T08:27:07.718Z,14.87
2023-01-20T08:29:38.124Z,14.03
2023-01-20T08:32:07.081Z,15.57
2023-01-20T08:34:37.531Z,13.07
2023-01-20T08:37:05.719Z,14.57
2023-01-20T08:39:33.963Z,14.93
2023-01-20T08:42:06.429Z,15.37
2023-01-20T08:44:34.912Z,13.63
2023-01-20T08:47:06.209Z,14.50
2023-01-20T08:49:36.868Z,14.53
2023-01-20T08:52:07.659Z,14.67
2023-01-20T08:54:38.436Z,14.83
2023-01-20T08:57:09.266Z,13.07
2023-01-20T08:59:39.983Z,13.70
2023-01-20T09:02:07.448Z,13.60
2023-01-20T09:04:39.811Z,15.70
2023-01-20T09:07:07.876Z,13.53
2023-01-20T09:09:37.493Z,13.53
2023-01-20T09:12:08.675Z,15.17
2023-01-20T09:14:38.970Z,14.77
2023-01-20T09:17:09.408Z,13.07
2023-01-20T09:19:36.377Z,12.70
2023-01-20T09:22:07.283Z,13.27
2023-01-20T09:24:34.444Z,12.20
2023-01-20T09:27:07.871Z,12.30
2023-01-20T09:29:36.831Z,11.90
2023-01-20T09:32:07.841Z,14.07
2023-01-20T09:34:37.566Z,11.70
2023-01-20T09:37:29.620Z,11.17
2023-01-20T09:40:20.391Z,11.37
2023-01-20T09:43:24.982Z,12.43
2023-01-20T09:46:28.733Z,11.87
2023-01-20T09:49:41.597Z,16.13
2023-01-20T09:52:56.872Z,15.30
2023-01-20T09:55:53.874Z,14.77
2023-01-20T09:58:28.969Z,14.57
2023-01-20T10:01:20.357Z,17.27
2023-01-20T10:04:15.806Z,13.67
2023-01-20T10:07:09.226Z,11.37
2023-01-20T10:10:07.806Z,12.27
2023-01-20T10:13:12.026Z,11.00
2023-01-20T10:15:59.135Z,12.57
2023-01-20T10:18:53.408Z,10.80
2023-01-20T10:21:36.079Z,9.90
2023-01-20T10:24:18.133Z,10.63
2023-01-20T10:27:18.787Z,10.83
2023-01-20T10:29:56.330Z,10.80
2023-01-20T10:32:40.104Z,11.80
2023-01-20T10:35:29.098Z,10.77
2023-01-20T10:37:58.988Z,11.07
2023-01-20T10:40:53.814Z,10.27
2023-01-20T10:43:21.686Z,10.63
2023-01-20T10:46:18.334Z,11.03
2023-01-20T10:49:27.799Z,10.83
2023-01-20T10:52:28.225Z,10.87
2023-01-20T10:55:17.526Z,10.40
2023-01-20T10:57:53.020Z,10.50
2023-01-20T11:00:28.415Z,10.10
2023-01-20T11:03:03.224Z,11.30
2023-01-20T11:05:37.316Z,10.83
2023-01-20T11:08:29.252Z,10.97
2023-01-20T11:11:02.857Z,10.07
2023-01-20T11:13:31.728Z,11.53
2023-01-20T11:16:04.501Z,11.60
2023-01-20T11:18:33.765Z,12.40
2023-01-20T11:21:23.571Z,13.13
2023-01-20T11:24:05.803Z,11.27
2023-01-20T11:26:36.035Z,12.27
2023-01-20T11:29:23.303Z,11.60
2023-01-20T11:31:55.822Z,11.97
2023-01-20T11:34:49.752Z,11.53
2023-01-20T11:37:32.869Z,13.70
2023-01-20T11:40:05.173Z,16.80
2023-01-20T11:42:48.855Z,13.30
2023-01-20T11:45:35.937Z,12.10
2023-01-20T11:48:17.536Z,11.83
2023-01-20T11:50:57.025Z,12.30
2023-01-20T11:53:47.574Z,13.10
2023-01-20T11:56:43.690Z,13.10
2023-01-20T11:59:46.217Z,14.13
2023-01-20T12:02:13.654Z,12.83
2023-01-20T12:05:30.448Z,13.57
2023-01-20T12:07:59.804Z,12.50
2023-01-20T12:10:37.932Z,14.37
2023-01-20T12:13:32.776Z,11.57
2023-01-20T12:16:06.903Z,11.63
2023-01-20T12:19:04.970Z,12.57
2023-01-20T12:21:46.479Z,13.80
2023-01-20T12:24:42.429Z,13.87
2023-01-20T12:27:23.955Z,12.10
2023-01-20T12:30:13.014Z,11.90
2023-01-20T12:32:47.873Z,11.53
2023-01-20T12:35:17.062Z,11.50
2023-01-20T12:38:02.653Z,10.50
2023-01-20T12:40:54.825Z,11.77
2023-01-20T12:44:13.926Z,11.20
2023-01-20T12:47:24.883Z,11.93
2023-01-20T12:50:33.825Z,11.03
2023-01-20T12:53:44.849Z,12.35
2023-01-20T12:56:46.106Z,12.83
2023-01-20T12:59:55.412Z,11.48
2023-01-20T13:03:07.710Z,10.90
2023-01-20T13:06:17.292Z,10.40
2023-01-20T13:09:16.120Z,11.20
2023-01-20T13:12:17.354Z,11.65
2023-01-20T13:15:17.222Z,9.73
2023-01-20T13:18:21.926Z,10.20
2023-01-20T13:23:39.747Z,10.40
2023-01-20T13:26:10.851Z,9.50
2023-01-20T13:28:54.704Z,10.67
2023-01-20T13:31:47.582Z,10.63
2023-01-20T13:34:31.456Z,10.40
2023-01-20T13:37:11.405Z,11.27
2023-01-20T13:39:54.006Z,10.40
2023-01-20T13:42:56.313Z,9.27
2023-01-20T13:45:26.425Z,10.00
2023-01-20T13:48:03.424Z,8.95
2023-01-20T13:50:43.374Z,9.83
2023-01-20T13:53:29.906Z,11.13
2023-01-20T13:56:40.660Z,9.63
2023-01-20T13:59:13.981Z,9.27
2023-01-20T14:01:44.572Z,9.17
2023-01-20T14:04:20.161Z,9.70
2023-01-20T14:07:11.094Z,9.60
2023-01-20T14:09:44.007Z,10.43
2023-01-20T14:12:12.495Z,10.17
2023-01-20T14:14:46.663Z,9.97
2023-01-20T14:17:21.359Z,9.50
2023-01-20T14:19:50.239Z,10.80
2023-01-20T14:22:30.629Z,10.23
2023-01-20T14:25:01.840Z,9.70
2023-01-20T14:27:36.202Z,9.30
2023-01-20T14:30:21.152Z,9.80
2023-01-20T14:32:50.776Z,9.67
2023-01-20T14:35:40.434Z,10.30
2023-01-20T14:38:19.194Z,9.70
2023-01-20T14:40:49.563Z,9.40
2023-01-20T14:43:19.851Z,10.10
2023-01-20T14:45:54.677Z,10.40
2023-01-20T14:48:34.503Z,10.33
2023-01-20T14:51:08.269Z,10.67
2023-01-20T14:53:38.706Z,10.77
2023-01-20T14:56:26.775Z,10.57
2023-01-20T14:59:02.316Z,12.13
2023-01-20T15:01:33.837Z,10.57
2023-01-20T15:04:07.001Z,12.73
2023-01-20T15:06:36.327Z,11.50
2023-01-20T15:09:27.044Z,10.50
2023-01-20T15:12:35.369Z,10.20
2023-01-20T15:15:23.704Z,12.30
2023-01-20T15:18:11.787Z,10.10
2023-01-20T15:20:44.581Z,10.87
2023-01-20T15:23:25.873Z,12.47
2023-01-20T15:26:07.764Z,10.07
2023-01-20T15:28:41.749Z,12.27
2023-01-20T15:31:17.769Z,13.37
2023-01-20T15:33:45.364Z,10.33
2023-01-20T15:36:53.735Z,16.47
2023-01-20T15:39:36.944Z,21.67
2023-01-20T15:42:08.945Z,20.67
2023-01-20T15:44:40.425Z,12.43
2023-01-20T15:47:31.654Z,12.87
2023-01-20T15:50:02.565Z,11.87
2023-01-20T15:52:31.460Z,11.13
2023-01-20T15:55:01.296Z,10.37
2023-01-20T15:57:30.297Z,9.97
2023-01-20T16:00:00.176Z,10.33
2023-01-20T16:02:30.253Z,10.47
2023-01-20T16:04:59.956Z,11.00
2023-01-20T16:07:28.657Z,10.30
2023-01-20T16:09:58.869Z,10.43
2023-01-20T16:12:29.727Z,11.57
2023-01-20T16:14:59.088Z,10.33
2023-01-20T16:17:30.276Z,10.83
2023-01-20T16:19:59.567Z,11.90
2023-01-20T16:22:30.762Z,11.73
2023-01-20T16:24:59.873Z,10.53
2023-01-20T16:27:29.807Z,11.37
2023-01-20T16:30:00.163Z,10.90
2023-01-20T16:32:30.666Z,12.40
2023-01-20T16:35:00.151Z,11.83
2023-01-20T16:37:29.452Z,13.30
2023-01-20T16:39:58.536Z,17.47
2023-01-20T16:42:29.851Z,14.60
2023-01-20T16:44:57.534Z,12.70
2023-01-20T16:51:23.052Z,11.37
2023-01-20T16:53:50.369Z,12.80
2023-01-20T16:56:34.366Z,11.63
2023-01-20T16:59:04.121Z,11.97
2023-01-20T17:01:34.083Z,12.50
2023-01-20T17:04:03.826Z,11.53
2023-01-20T17:06:33.966Z,12.20
2023-01-20T17:09:04.709Z,12.53
2023-01-20T17:11:36.212Z,14.00
2023-01-20T17:14:09.664Z,13.57
2023-01-20T17:26:09.155Z,23.37
2023-01-20T17:28:48.496Z,16.95
2023-01-20T17:31:21.482Z,14.97
2023-01-20T17:33:51.762Z,17.10
2023-01-20T17:36:23.455Z,17.30
2023-01-20T17:38:52.065Z,17.50
2023-01-20T17:41:23.733Z,19.73
2023-01-20T17:43:52.718Z,18.20
2023-01-20T17:46:40.757Z,18.93
2023-01-20T17:49:11.302Z,16.63
2023-01-20T17:51:41.040Z,21.63
2023-01-20T17:54:10.980Z,24.20
2023-01-20T17:56:42.753Z,21.37
2023-01-20T17:59:14.613Z,18.80
2023-01-20T18:01:45.215Z,20.97
2023-01-20T18:07:00.630Z,16.50
2023-01-20T18:09:30.101Z,15.97
2023-01-20T18:12:00.712Z,17.02
2023-01-20T18:14:29.505Z,18.10
2023-01-20T18:16:58.836Z,17.77
2023-01-20T18:19:30.184Z,20.57
2023-01-20T18:22:07.716Z,17.90
2023-01-20T18:24:41.368Z,17.60
2023-01-20T18:27:11.006Z,23.52
2023-01-20T18:29:41.233Z,22.40
2023-01-20T18:32:10.266Z,25.93
2023-01-20T18:34:37.864Z,16.90
2023-01-20T18:37:08.175Z,15.33
2023-01-20T18:39:48.352Z,15.73
2023-01-20T18:42:20.529Z,13.23
2023-01-20T18:44:49.865Z,13.83
2023-01-20T18:47:19.038Z,13.37
2023-01-20T18:49:49.271Z,12.97
2023-01-20T18:52:22.581Z,16.57
2023-01-20T18:54:50.589Z,15.10
2023-01-20T18:57:18.205Z,12.57
2023-01-20T18:59:47.789Z,12.63
2023-01-20T19:02:15.454Z,12.10
2023-01-20T19:04:47.701Z,13.77
2023-01-20T19:07:15.726Z,12.77
2023-01-20T19:09:45.005Z,12.40
2023-01-20T19:12:20.409Z,13.13
2023-01-20T19:14:51.627Z,15.40
2023-01-20T19:20:04.745Z,13.30
2023-01-20T19:22:33.901Z,11.70
2023-01-20T19:25:03.238Z,13.53
2023-01-20T19:27:32.513Z,13.27
2023-01-20T19:30:02.908Z,13.20
2023-01-20T19:32:33.676Z,12.50
2023-01-20T19:35:02.916Z,13.00
2023-01-20T19:37:34.147Z,14.57
2023-01-20T19:40:06.274Z,14.03
2023-01-20T19:42:40.950Z,13.47
2023-01-20T19:45:15.187Z,13.90
2023-01-20T19:47:49.002Z,15.10
2023-01-20T19:50:19.148Z,13.37
2023-01-20T19:52:49.225Z,12.10
2023-01-20T19:55:19.581Z,12.23
2023-01-20T19:57:49.514Z,13.07
2023-01-20T20:00:22.784Z,15.53
2023-01-20T20:02:59.013Z,14.13
2023-01-20T20:05:27.567Z,13.40
2023-01-20T20:07:59.604Z,16.00
2023-01-20T20:10:28.702Z,16.03
2023-01-20T20:12:59.548Z,15.47
2023-01-20T20:15:30.076Z,14.47
2023-01-20T20:18:00.714Z,13.63
2023-01-20T20:20:30.198Z,14.63
2023-01-20T20:23:00.249Z,15.80
2023-01-20T20:25:29.598Z,17.07
2023-01-20T20:28:00.572Z,19.30
2023-01-20T20:30:30.588Z,18.90
2023-01-20T20:33:07.166Z,17.30
2023-01-20T20:35:42.383Z,16.33
2023-01-20T20:38:13.865Z,14.07
2023-01-20T20:40:46.205Z,16.23
2023-01-20T20:43:16.062Z,16.80
2023-01-20T20:45:45.491Z,16.67
2023-01-20T20:48:17.253Z,16.13
2023-01-20T20:50:46.279Z,15.80
2023-01-20T20:53:18.932Z,15.20
2023-01-20T20:55:54.348Z,15.10
2023-01-20T20:58:25.441Z,14.83
2023-01-20T21:01:03.338Z,15.03
2023-01-20T21:03:45.684Z,22.20
2023-01-20T21:06:16.584Z,22.73
2023-01-20T21:08:51.299Z,20.77
2023-01-20T21:11:23.408Z,18.33
2023-01-20T21:13:55.323Z,16.70
2023-01-20T21:16:24.566Z,16.00
2023-01-20T21:19:05.402Z,16.57
2023-01-20T21:21:35.260Z,14.73
2023-01-20T21:24:04.431Z,16.30
2023-01-20T21:26:32.922Z,14.70
2023-01-20T21:29:04.037Z,12.77
2023-01-20T21:31:32.410Z,14.73
2023-01-20T21:34:03.727Z,14.10
2023-01-20T21:36:34.642Z,13.83
2023-01-20T21:39:02.737Z,15.10
2023-01-20T21:41:30.921Z,13.27
2023-01-20T21:44:19.651Z,13.53
2023-01-20T21:46:50.422Z,14.20
2023-01-20T21:49:37.033Z,15.47
2023-01-20T21:52:24.806Z,16.73
2023-01-20T21:54:52.538Z,14.90
2023-01-20T21:57:21.777Z,15.90
2023-01-20T21:59:49.501Z,13.10
2023-01-20T22:02:20.033Z,14.90
2023-01-20T22:04:50.421Z,15.20
2023-01-20T22:07:18.292Z,14.40
2023-01-20T22:09:50.314Z,16.63
2023-01-20T22:12:19.512Z,15.07
2023-01-20T22:14:47.667Z,15.57
2023-01-20T22:17:15.785Z,17.00
2023-01-20T22:19:46.008Z,16.20
2023-01-20T22:22:15.363Z,15.27
2023-01-20T22:24:43.740Z,14.87
2023-01-20T22:27:13.986Z,15.30
2023-01-20T22:29:44.865Z,16.33
2023-01-20T22:32:17.150Z,18.13
2023-01-20T22:34:46.758Z,17.27
2023-01-20T22:37:14.875Z,15.63
2023-01-20T22:39:46.542Z,17.03
2023-01-20T22:42:13.694Z,17.43
2023-01-20T22:44:43.216Z,16.80
2023-01-20T22:47:14.237Z,17.70
2023-01-20T22:49:42.297Z,17.30
2023-01-20T22:52:13.971Z,18.53
2023-01-20T22:54:42.108Z,19.00
2023-01-20T22:57:13.451Z,17.57
2023-01-20T22:59:41.930Z,20.10
2023-01-20T23:02:13.963Z,19.67
2023-01-20T23:04:41.239Z,21.03
2023-01-20T23:07:14.522Z,21.10
2023-01-20T23:09:47.903Z,17.50
2023-01-20T23:12:19.827Z,19.77
2023-01-20T23:15:00.649Z,21.73
2023-01-20T23:17:29.069Z,20.73
2023-01-20T23:20:01.543Z,20.50
2023-01-20T23:22:30.628Z,20.83
2023-01-20T23:25:00.494Z,20.10
2023-01-20T23:27:30.732Z,19.33
2023-01-20T23:30:01.062Z,18.13
2023-01-20T23:32:30.682Z,19.93
2023-01-20T23:35:00.547Z,19.43
2023-01-20T23:37:32.114Z,18.33
2023-01-20T23:40:02.023Z,17.70
2023-01-20T23:42:31.397Z,16.83
2023-01-20T23:45:00.646Z,18.13
2023-01-20T23:47:30.723Z,17.63
2023-01-20T23:49:58.012Z,18.23
2023-01-20T23:52:26.318Z,18.20
2023-01-20T23:54:58.897Z,16.53
2023-01-20T23:57:36.467Z,17.83
